Time;durP1;ratioP1;P1;durP2;ratioP2;P2;SDS_P1;SDS_P2;PMS_P1;PMS_P2;Temp;Humidity;BMP_temperature;BMP_pressure;BME280_temperature;BME280_humidity;BME280_pressure;Samples;Min_cycle;Max_cycle;Signal;HPM_P1;HPM_P2
2023/09/07 00:00:20;;;;;;;6.55;3.67;;;;;;;17.63;100.00;96892.28;5056624;28;20072;-70
2023/09/07 00:02:45;;;;;;;6.80;4.40;;;;;;;17.60;100.00;96893.09;5062541;28;20458;-70
2023/09/07 00:05:11;;;;;;;5.30;4.05;;;;;;;17.57;100.00;96900.22;5057190;28;20044;-70
2023/09/07 00:07:37;;;;;;;6.93;4.38;;;;;;;17.54;100.00;96884.47;5061258;28;20036;-70
2023/09/07 00:10:03;;;;;;;6.75;4.32;;;;;;;17.47;100.00;96888.06;5059195;28;20142;-70
2023/09/07 00:12:28;;;;;;;6.13;4.15;;;;;;;17.42;100.00;96887.72;5060387;28;20131;-70
2023/09/07 00:14:54;;;;;;;7.35;4.50;;;;;;;17.34;100.00;96885.00;5061912;28;20131;-70
2023/09/07 00:17:20;;;;;;;13.90;4.80;;;;;;;17.18;100.00;96888.25;5055497;28;20076;-69
2023/09/07 00:19:48;;;;;;;6.25;4.72;;;;;;;17.10;100.00;96885.94;5060946;28;20037;-69
2023/09/07 00:22:14;;;;;;;5.15;4.07;;;;;;;17.06;100.00;96891.50;5055680;28;20447;-69
2023/09/07 00:24:40;;;;;;;6.53;4.45;;;;;;;17.02;100.00;96882.44;5044174;28;20131;-68
2023/09/07 00:27:07;;;;;;;7.10;4.60;;;;;;;17.02;100.00;96887.97;5056940;28;20043;-69
2023/09/07 00:29:34;;;;;;;10.18;4.82;;;;;;;16.96;100.00;96884.84;5061417;28;20120;-68
2023/09/07 00:31:59;;;;;;;6.68;3.80;;;;;;;16.87;100.00;96881.75;5048484;28;20045;-71
2023/09/07 00:34:25;;;;;;;8.82;4.22;;;;;;;16.84;100.00;96881.78;5016414;28;20045;-68
2023/09/07 00:36:50;;;;;;;8.80;4.40;;;;;;;16.78;100.00;96884.94;5041430;28;20055;-70
2023/09/07 00:39:16;;;;;;;9.77;4.65;;;;;;;16.64;100.00;96890.53;5036574;28;20633;-70
2023/09/07 00:41:41;;;;;;;6.85;4.80;;;;;;;16.59;100.00;96888.19;5043923;28;20048;-70
2023/09/07 00:44:07;;;;;;;7.18;4.32;;;;;;;16.52;100.00;96885.44;5039440;28;20056;-70
2023/09/07 00:46:33;;;;;;;8.07;4.82;;;;;;;16.43;100.00;96889.41;5045046;28;20125;-69
2023/09/07 00:48:58;;;;;;;9.88;4.80;;;;;;;16.40;100.00;96883.91;5045169;28;20052;-70
2023/09/07 00:51:24;;;;;;;5.95;4.55;;;;;;;16.41;100.00;96891.00;5041316;28;20049;-69
2023/09/07 00:53:50;;;;;;;12.15;4.97;;;;;;;16.40;100.00;96890.22;5065731;28;20081;-69
2023/09/07 00:56:16;;;;;;;5.63;4.28;;;;;;;16.33;100.00;96884.72;5065185;28;20048;-69
2023/09/07 00:58:42;;;;;;;6.88;4.22;;;;;;;16.34;100.00;96889.06;5065246;28;20497;-69
2023/09/07 01:01:09;;;;;;;5.57;4.30;;;;;;;16.30;100.00;96893.81;5060539;28;20047;-69
2023/09/07 01:03:34;;;;;;;6.15;4.57;;;;;;;16.15;100.00;96895.03;5064382;28;20098;-69
2023/09/07 01:06:23;;;;;;;6.15;4.68;;;;;;;15.96;100.00;96899.03;5065842;28;20044;-69
2023/09/07 01:08:54;;;;;;;6.05;4.45;;;;;;;15.81;100.00;96896.28;5065283;28;20068;-69
2023/09/07 01:11:22;;;;;;;9.77;4.90;;;;;;;15.63;100.00;96893.50;5060610;28;20060;-69
2023/09/07 01:13:48;;;;;;;6.70;4.90;;;;;;;15.47;100.00;96891.13;5065787;28;20044;-69
2023/09/07 01:16:14;;;;;;;6.47;4.75;;;;;;;15.42;100.00;96882.47;5059518;28;20039;-69
2023/09/07 01:18:41;;;;;;;9.32;5.05;;;;;;;15.40;100.00;96882.06;5046653;28;20078;-69
2023/09/07 01:21:07;;;;;;;6.65;4.55;;;;;;;15.41;100.00;96881.69;5057968;28;20061;-69
2023/09/07 01:23:36;;;;;;;6.75;4.28;;;;;;;15.48;100.00;96880.88;5064322;28;20049;-69
2023/09/07 01:26:04;;;;;;;7.45;4.53;;;;;;;15.57;100.00;96889.53;5064040;28;20493;-70
2023/09/07 01:28:29;;;;;;;6.13;4.93;;;;;;;15.55;100.00;96891.91;5064450;28;20116;-69
2023/09/07 01:30:55;;;;;;;6.20;4.80;;;;;;;15.51;100.00;96888.38;5063774;28;20032;-69
2023/09/07 01:33:20;;;;;;;7.15;5.10;;;;;;;15.51;100.00;96895.88;5052443;28;20040;-68
2023/09/07 01:38:36;;;;;;;9.48;5.28;;;;;;;15.35;100.00;96891.53;5937331;23;20015;-68
2023/09/07 01:41:01;;;;;;;8.23;4.72;;;;;;;15.41;100.00;96889.97;5020324;28;20041;-68
2023/09/07 01:43:26;;;;;;;8.15;4.90;;;;;;;15.48;100.00;96889.97;5008981;28;20056;-68
2023/09/07 01:45:52;;;;;;;7.45;4.97;;;;;;;15.51;100.00;96890.34;5023476;28;20134;-67
2023/09/07 01:48:17;;;;;;;7.20;5.10;;;;;;;15.54;100.00;96886.78;5015951;28;20029;-70
2023/09/07 01:50:43;;;;;;;8.02;4.68;;;;;;;15.54;100.00;96887.59;4993462;28;20054;-69
2023/09/07 01:53:08;;;;;;;7.97;4.20;;;;;;;15.49;100.00;96882.47;4987337;28;20205;-70
2023/09/07 01:55:33;;;;;;;5.95;4.47;;;;;;;15.49;100.00;96882.47;4996940;28;20049;-69
2023/09/07 01:57:59;;;;;;;8.55;5.00;;;;;;;15.46;100.00;96886.00;4986668;28;20042;-70
2023/09/07 02:00:24;;;;;;;7.50;4.95;;;;;;;15.43;100.00;96892.31;4992117;28;20057;-69
2023/09/07 02:02:50;;;;;;;7.60;5.22;;;;;;;15.49;100.00;96888.00;4996498;28;20057;-69
2023/09/07 02:05:16;;;;;;;6.70;4.75;;;;;;;15.48;100.00;96891.91;4995215;28;20065;-70
2023/09/07 02:07:42;;;;;;;7.50;5.20;;;;;;;15.46;100.00;96897.03;4989856;28;20037;-69
2023/09/07 02:10:07;;;;;;;11.13;5.07;;;;;;;15.45;100.00;96889.97;4990620;28;20053;-70
2023/09/07 02:12:33;;;;;;;9.02;5.78;;;;;;;15.36;100.00;96884.03;4996257;28;20054;-70
2023/09/07 02:15:03;;;;;;;8.52;5.95;;;;;;;15.27;100.00;96882.47;5000269;28;20153;-70
2023/09/07 02:17:29;;;;;;;11.75;5.82;;;;;;;15.23;100.00;96889.16;4987478;28;20049;-70
2023/09/07 02:19:54;;;;;;;9.55;5.55;;;;;;;15.13;100.00;96887.19;4995489;28;20058;-69
2023/09/07 02:22:19;;;;;;;9.55;6.03;;;;;;;15.12;100.00;96886.38;4999614;28;20052;-69
2023/09/07 02:24:45;;;;;;;9.13;5.75;;;;;;;15.24;100.00;96897.03;4987164;28;20058;-69
2023/09/07 02:27:10;;;;;;;9.15;5.50;;;;;;;15.11;100.00;96884.81;4996288;28;20045;-69
2023/09/07 02:29:36;;;;;;;9.70;6.15;;;;;;;14.93;100.00;96881.22;5003174;28;20038;-69
2023/09/07 02:32:02;;;;;;;7.70;5.70;;;;;;;14.83;100.00;96889.06;4985035;28;20507;-70
2023/09/07 02:34:27;;;;;;;9.38;6.00;;;;;;;14.68;100.00;96885.50;4996441;28;20046;-69
2023/09/07 02:36:53;;;;;;;9.15;5.90;;;;;;;14.54;100.00;96888.16;5000490;28;20484;-69
2023/09/07 02:39:18;;;;;;;10.70;6.53;;;;;;;14.33;100.00;96888.84;4982645;28;20038;-70
2023/09/07 02:41:45;;;;;;;11.32;6.57;;;;;;;14.25;100.00;96893.56;4987756;28;20050;-69
2023/09/07 02:44:10;;;;;;;8.57;5.93;;;;;;;14.38;100.00;96890.47;4987827;28;20077;-70
2023/09/07 02:46:36;;;;;;;10.25;6.68;;;;;;;14.47;100.00;96893.66;4998142;28;20081;-69
2023/09/07 02:49:01;;;;;;;13.25;6.72;;;;;;;14.30;100.00;96890.44;4986648;28;20052;-68
2023/09/07 02:51:27;;;;;;;12.07;6.38;;;;;;;14.28;100.00;96889.25;4992295;28;20049;-68
2023/09/07 02:53:53;;;;;;;10.05;6.10;;;;;;;14.28;100.00;96890.03;4991729;28;20077;-69
2023/09/07 02:56:18;;;;;;;11.55;6.22;;;;;;;14.38;100.00;96887.72;4994742;28;20042;-69
2023/09/07 02:58:45;;;;;;;10.65;6.45;;;;;;;14.32;100.00;96888.06;4998167;28;20518;-68
2023/09/07 03:01:11;;;;;;;12.93;6.93;;;;;;;14.24;100.00;96892.00;4990239;28;20104;-68
2023/09/07 03:03:37;;;;;;;14.13;6.38;;;;;;;14.15;100.00;96889.59;4997511;28;20046;-68
2023/09/07 03:06:10;;;;;;;9.95;6.10;;;;;;;14.04;100.00;96887.94;4989591;28;20050;-69
2023/09/07 03:08:36;;;;;;;9.48;5.90;;;;;;;14.14;100.00;96892.72;4997493;28;20086;-68
2023/09/07 03:11:05;;;;;;;8.63;6.30;;;;;;;14.13;100.00;96893.88;5013818;28;20080;-69
2023/09/07 03:13:31;;;;;;;9.55;6.45;;;;;;;14.07;100.00;96889.94;4992681;28;20046;-70
2023/09/07 03:15:57;;;;;;;7.85;5.43;;;;;;;14.15;100.00;96889.59;5000891;28;20482;-67
2023/09/07 03:18:22;;;;;;;13.55;6.90;;;;;;;14.24;100.00;96885.66;4980823;28;20294;-67
2023/09/07 03:20:48;;;;;;;8.13;6.20;;;;;;;14.29;100.00;96886.09;4995363;28;20065;-68
2023/09/07 03:23:13;;;;;;;9.68;6.35;;;;;;;14.32;100.00;96890.84;4992727;28;20046;-68
2023/09/07 03:25:39;;;;;;;8.38;5.65;;;;;;;14.37;100.00;96892.44;4987234;28;20188;-68
2023/09/07 03:28:05;;;;;;;7.43;5.38;;;;;;;14.38;100.00;96891.25;4987692;28;20042;-70
2023/09/07 03:30:30;;;;;;;9.82;5.95;;;;;;;14.35;100.00;96894.78;4990500;28;20073;-68
2023/09/07 03:32:55;;;;;;;9.35;5.80;;;;;;;14.16;100.00;96901.38;4990538;28;20110;-67
2023/09/07 03:35:21;;;;;;;10.55;6.38;;;;;;;14.06;100.00;96900.16;4986109;28;20090;-67
2023/09/07 03:37:47;;;;;;;7.00;5.63;;;;;;;14.17;100.00;96908.47;4997726;28;20073;-68
2023/09/07 03:40:12;;;;;;;8.07;5.78;;;;;;;14.24;100.00;96903.00;4977536;28;20049;-68
2023/09/07 03:42:39;;;;;;;8.40;5.60;;;;;;;14.34;100.00;96905.00;4997238;28;20042;-67
2023/09/07 03:45:05;;;;;;;9.75;5.72;;;;;;;14.35;100.00;96905.81;4985661;28;20056;-69
2023/09/07 03:47:30;;;;;;;12.57;5.80;;;;;;;14.32;100.00;96903.81;4992703;28;20081;-68
2023/09/07 03:49:57;;;;;;;9.55;5.65;;;;;;;14.28;100.00;96903.81;4993323;28;20077;-68
2023/09/07 03:52:24;;;;;;;12.55;6.53;;;;;;;14.20;100.00;96898.66;4995308;28;20463;-68
2023/09/07 03:54:59;;;;;;;9.50;6.07;;;;;;;14.03;100.00;96900.91;4984330;28;20133;-68
2023/09/07 03:57:25;;;;;;;12.90;7.40;;;;;;;13.90;100.00;96902.38;4983225;28;20873;-68
2023/09/07 03:59:51;;;;;;;8.05;6.85;;;;;;;13.74;100.00;96900.72;4988740;28;20430;-68
2023/09/07 04:02:20;;;;;;;8.55;6.70;;;;;;;13.84;100.00;96903.94;4984869;28;20046;-68
2023/09/07 04:04:53;;;;;;;11.55;7.03;;;;;;;13.87;100.00;96901.22;4987636;28;20058;-68
2023/09/07 04:07:19;;;;;;;8.27;5.95;;;;;;;13.80;100.00;96897.63;4988495;28;20100;-68
2023/09/07 04:09:45;;;;;;;9.95;6.30;;;;;;;13.76;100.00;96903.88;4995202;28;20421;-67
2023/09/07 04:12:11;;;;;;;11.05;6.75;;;;;;;13.65;100.00;96904.97;4984782;28;20096;-68
2023/09/07 04:14:37;;;;;;;13.45;6.30;;;;;;;13.71;100.00;96900.72;4987628;28;20069;-69
2023/09/07 04:17:03;;;;;;;8.43;6.47;;;;;;;13.72;100.00;96894.81;4994750;28;20142;-71
2023/09/07 04:19:28;;;;;;;11.05;6.35;;;;;;;13.83;100.00;96899.59;4983862;28;20049;-69
2023/09/07 04:21:54;;;;;;;10.60;6.30;;;;;;;13.80;100.00;96892.91;4993240;28;20086;-69
2023/09/07 04:24:19;;;;;;;8.27;6.57;;;;;;;13.79;100.00;96904.28;4985104;28;20049;-68
2023/09/07 04:26:45;;;;;;;9.52;6.55;;;;;;;13.84;100.00;96903.94;4987371;28;20519;-68
2023/09/07 04:29:12;;;;;;;11.20;6.28;;;;;;;13.80;100.00;96901.16;4992453;28;20137;-68
2023/09/07 04:31:38;;;;;;;8.57;6.40;;;;;;;13.83;100.00;96903.16;4986256;28;20123;-68
2023/09/07 04:34:03;;;;;;;10.57;6.88;;;;;;;13.72;100.00;96905.84;4989225;28;20054;-71
2023/09/07 04:36:28;;;;;;;11.75;7.13;;;;;;;13.56;100.00;96908.84;5005352;23;20054;-72
2023/09/07 04:38:54;;;;;;;9.45;6.60;;;;;;;13.55;100.00;96907.25;5020083;28;20119;-72
2023/09/07 04:41:20;;;;;;;10.65;7.60;;;;;;;13.44;100.00;96902.84;5008332;28;20045;-71
2023/09/07 04:43:45;;;;;;;14.20;8.27;;;;;;;13.19;100.00;96906.91;5018370;28;20045;-72
2023/09/07 04:46:12;;;;;;;11.55;6.80;;;;;;;13.16;100.00;96915.13;5004820;28;20137;-71
2023/09/07 04:48:38;;;;;;;9.65;7.25;;;;;;;13.06;100.00;96905.63;5002534;28;20111;-73
2023/09/07 04:51:05;;;;;;;12.23;8.20;;;;;;;12.94;100.00;96916.88;4994558;28;20056;-75
2023/09/07 04:53:34;;;;;;;13.45;8.18;;;;;;;12.84;100.00;96918.38;5011845;28;20157;-72
2023/09/07 04:56:01;;;;;;;12.65;7.20;;;;;;;12.88;100.00;96927.44;5005349;28;20408;-68
2023/09/07 04:58:27;;;;;;;11.07;7.68;;;;;;;13.09;100.00;96921.38;4999535;28;20050;-69
2023/09/07 05:00:53;;;;;;;10.38;7.18;;;;;;;13.28;100.00;96922.34;5001086;28;20038;-71
2023/09/07 05:03:18;;;;;;;13.05;7.32;;;;;;;13.42;100.00;96919.75;4997977;28;20439;-71
2023/09/07 05:05:45;;;;;;;10.27;6.68;;;;;;;13.60;100.00;96919.09;5004932;28;20049;-71
2023/09/07 05:08:10;;;;;;;12.48;6.60;;;;;;;13.76;100.00;96916.88;5005898;28;20132;-71
2023/09/07 05:10:36;;;;;;;11.20;7.40;;;;;;;13.96;100.00;96925.66;5017983;28;20217;-72
2023/09/07 05:13:02;;;;;;;10.88;7.38;;;;;;;14.19;100.00;96922.66;5017759;28;20558;-73
2023/09/07 05:15:28;;;;;;;10.25;7.28;;;;;;;14.37;100.00;96922.75;5012475;28;20735;-74
2023/09/07 05:17:54;;;;;;;11.35;6.63;;;;;;;14.68;100.00;96926.06;5020156;28;20053;-72
2023/09/07 05:20:19;;;;;;;9.75;6.43;;;;;;;15.37;100.00;96935.28;5012067;28;20099;-73
2023/09/07 05:22:46;;;;;;;8.88;6.10;;;;;;;16.22;100.00;96939.22;5020169;28;20142;-72
2023/09/07 05:25:11;;;;;;;14.20;5.65;;;;;;;17.07;100.00;96944.84;5014720;28;20765;-72
2023/09/07 05:27:37;;;;;;;11.23;5.63;;;;;;;17.65;100.00;96939.75;5006874;28;20045;-71
2023/09/07 05:30:03;;;;;;;9.82;5.35;;;;;;;18.48;100.00;96951.66;5021203;28;20033;-76
2023/09/07 05:32:29;;;;;;;7.25;4.85;;;;;;;19.31;96.80;96950.66;5010912;28;20508;-71
2023/09/07 05:34:55;;;;;;;7.90;5.07;;;;;;;19.63;90.31;96955.75;5023310;28;20050;-71
2023/09/07 05:37:20;;;;;;;10.43;4.82;;;;;;;20.28;87.76;96957.50;5009954;28;20585;-71
2023/09/07 05:39:45;;;;;;;7.60;4.97;;;;;;;20.43;85.00;96963.56;5023347;28;20057;-71
2023/09/07 05:42:12;;;;;;;8.93;4.85;;;;;;;20.87;84.66;96961.56;5018774;28;20076;-71
2023/09/07 05:44:38;;;;;;;6.78;4.78;;;;;;;21.73;77.11;96970.84;5024533;28;20407;-72
2023/09/07 05:47:04;;;;;;;6.78;4.45;;;;;;;22.52;69.90;96968.88;5002164;28;20041;-77
2023/09/07 05:49:30;;;;;;;8.13;4.63;;;;;;;23.07;67.45;96973.81;5013308;28;20048;-71
2023/09/07 05:51:56;;;;;;;6.93;4.13;;;;;;;23.66;63.58;96966.81;5016302;28;20413;-71
2023/09/07 05:54:21;;;;;;;8.77;4.22;;;;;;;23.90;62.07;96974.88;5017046;28;20060;-71
2023/09/07 05:56:47;;;;;;;6.35;4.35;;;;;;;24.08;60.97;96977.09;5019341;28;20112;-71
2023/09/07 05:59:12;;;;;;;10.30;4.97;;;;;;;24.28;59.89;96971.22;5013452;28;20052;-72
2023/09/07 06:01:39;;;;;;;7.22;4.07;;;;;;;24.42;59.28;96975.56;5014185;28;20638;-72
2023/09/07 06:04:05;;;;;;;11.15;4.75;;;;;;;24.75;57.08;96973.22;5003984;28;20527;-74
2023/09/07 06:06:31;;;;;;;7.38;4.63;;;;;;;25.21;55.50;96971.97;5014215;28;20438;-71
2023/09/07 06:08:58;;;;;;;7.38;4.55;;;;;;;25.48;54.56;96986.19;5007528;28;20050;-72
2023/09/07 06:11:24;;;;;;;8.75;4.70;;;;;;;26.01;52.93;96988.13;5005877;28;20282;-71
2023/09/07 06:13:50;;;;;;;5.03;3.83;;;;;;;26.46;51.26;96980.25;5017258;28;20458;-71
2023/09/07 06:16:15;;;;;;;6.82;4.47;;;;;;;25.79;53.02;96976.97;5006184;28;20046;-74
2023/09/07 06:18:41;;;;;;;5.72;4.18;;;;;;;26.69;50.12;96984.53;5018515;28;20515;-70
2023/09/07 06:21:06;;;;;;;11.10;5.13;;;;;;;25.74;51.55;96981.13;5021694;28;20041;-77
2023/09/07 06:23:31;;;;;;;9.13;4.47;;;;;;;26.46;50.38;96986.66;5032895;28;20069;-73
2023/09/07 06:25:57;;;;;;;16.15;5.78;;;;;;;25.96;49.90;96991.53;5017166;28;20064;-71
2023/09/07 06:28:22;;;;;;;12.88;5.93;;;;;;;26.16;51.67;96982.69;5010764;28;20328;-71
2023/09/07 06:30:48;;;;;;;19.55;6.10;;;;;;;26.80;49.25;96986.88;5010034;28;20115;-72
2023/09/07 06:33:13;;;;;;;9.68;4.85;;;;;;;26.30;50.79;96990.53;5005365;28;20487;-71
2023/09/07 06:35:39;;;;;;;10.18;4.53;;;;;;;25.96;51.62;96979.53;5014178;28;20503;-73
2023/09/07 06:38:05;;;;;;;5.68;4.10;;;;;;;26.37;50.91;96986.66;5001648;28;20048;-77
2023/09/07 06:40:31;;;;;;;5.70;3.88;;;;;;;26.86;49.26;96980.13;5009879;28;20124;-71
2023/09/07 06:42:56;;;;;;;11.75;4.97;;;;;;;25.15;56.42;96977.38;5021594;28;20148;-72
2023/09/07 06:45:23;;;;;;;12.65;4.75;;;;;;;26.61;51.52;96986.84;5012031;28;20842;-70
2023/09/07 06:47:52;;;;;;;9.85;4.65;;;;;;;26.46;52.20;96989.47;5018468;28;20080;-72
2023/09/07 06:50:18;;;;;;;10.27;4.67;;;;;;;26.21;52.68;96989.72;5020183;28;20037;-71
2023/09/07 06:52:43;;;;;;;7.63;4.32;;;;;;;27.66;48.63;96988.59;5021942;28;20048;-71
2023/09/07 06:55:09;;;;;;;7.40;4.35;;;;;;;28.69;46.37;96989.63;5016016;28;20037;-71
2023/09/07 06:57:34;;;;;;;5.53;4.18;;;;;;;29.41;44.18;97002.78;5013962;28;20096;-73
2023/09/07 07:00:00;;;;;;;5.47;4.07;;;;;;;30.21;41.86;97011.25;5018123;28;20053;-72
2023/09/07 07:02:25;;;;;;;6.45;3.95;;;;;;;30.47;41.56;97003.69;5008835;28;21793;-70
2023/09/07 07:04:51;;;;;;;11.60;4.57;;;;;;;29.74;42.59;97002.56;5017892;28;20042;-70
2023/09/07 07:07:17;;;;;;;7.10;3.95;;;;;;;29.70;42.21;97005.59;5011870;28;20073;-71
2023/09/07 07:09:43;;;;;;;7.22;4.38;;;;;;;30.64;41.22;97015.19;5016123;28;20128;-70
2023/09/07 07:12:08;;;;;;;6.65;3.72;;;;;;;29.61;43.54;97005.69;4996378;28;20120;-70
2023/09/07 07:14:34;;;;;;;7.30;4.00;;;;;;;27.19;49.04;96990.72;4995949;28;20052;-69
2023/09/07 07:17:01;;;;;;;6.20;4.05;;;;;;;27.97;47.82;96999.59;5015651;28;20042;-70
2023/09/07 07:19:27;;;;;;;6.85;4.78;;;;;;;28.06;47.69;97000.81;5013480;28;20041;-70
2023/09/07 07:21:52;;;;;;;11.10;4.93;;;;;;;29.31;44.58;97008.50;5017803;28;20472;-69
2023/09/07 07:24:18;;;;;;;7.45;4.60;;;;;;;28.66;46.09;97005.44;5017203;28;20045;-69
2023/09/07 07:26:43;;;;;;;7.97;5.13;;;;;;;30.09;43.66;97007.50;5016921;28;20047;-70
2023/09/07 07:29:09;;;;;;;10.80;4.70;;;;;;;30.53;42.20;97014.28;5016136;28;20180;-69
2023/09/07 07:31:35;;;;;;;6.10;5.07;;;;;;;30.01;43.01;97012.75;4992671;28;20045;-70
2023/09/07 07:34:01;;;;;;;9.20;4.65;;;;;;;30.75;41.65;97014.56;4995565;28;20116;-70
2023/09/07 07:36:26;;;;;;;12.13;6.68;;;;;;;30.43;42.04;97017.25;5003877;28;20053;-71
2023/09/07 07:38:52;;;;;;;9.05;5.47;;;;;;;31.42;39.80;97019.41;5010536;28;20049;-71
2023/09/07 07:41:17;;;;;;;6.35;4.43;;;;;;;31.25;39.74;97028.53;5006555;28;20153;-72
2023/09/07 07:43:42;;;;;;;8.30;4.88;;;;;;;31.11;39.52;97018.06;5019952;28;20061;-72
2023/09/07 07:46:08;;;;;;;8.43;4.70;;;;;;;30.56;41.17;97021.75;5006264;28;20065;-72
2023/09/07 07:48:35;;;;;;;8.63;4.85;;;;;;;29.91;43.04;97014.94;5011979;28;20037;-71
2023/09/07 07:51:04;;;;;;;7.72;4.60;;;;;;;29.40;43.20;97010.44;5012398;28;20064;-70
2023/09/07 07:53:30;;;;;;;7.30;5.00;;;;;;;29.88;42.93;97010.25;5002174;28;20042;-71
2023/09/07 07:55:56;;;;;;;8.88;4.05;;;;;;;30.33;41.96;97015.78;5014342;28;20125;-72
2023/09/07 07:58:22;;;;;;;6.80;4.25;;;;;;;31.23;39.00;97021.81;5010601;28;20544;-72
2023/09/07 08:00:48;;;;;;;6.32;4.65;;;;;;;29.16;43.63;97014.13;5020194;28;20135;-70
2023/09/07 08:03:17;;;;;;;9.23;4.82;;;;;;;28.64;45.79;97007.97;5015009;28;20045;-71
2023/09/07 08:05:42;;;;;;;7.18;4.15;;;;;;;29.42;44.64;97007.91;5011460;28;20042;-73
2023/09/07 08:08:08;;;;;;;8.82;4.35;;;;;;;31.19;41.37;97005.06;5008130;28;20654;-72
2023/09/07 08:10:37;;;;;;;5.95;4.05;;;;;;;31.01;41.85;96997.69;5010420;28;20738;-70
2023/09/07 08:13:03;;;;;;;5.95;3.92;;;;;;;31.93;39.68;97000.84;5017194;28;20045;-74
2023/09/07 08:15:31;;;;;;;5.70;4.25;;;;;;;31.93;39.25;97003.66;5016623;28;20053;-71
2023/09/07 08:17:56;;;;;;;7.68;4.68;;;;;;;31.39;40.11;97004.22;5013119;28;20042;-70
2023/09/07 08:20:22;;;;;;;8.65;5.05;;;;;;;31.74;38.99;97011.75;5012318;28;20181;-69
2023/09/07 08:22:48;;;;;;;11.65;4.82;;;;;;;31.53;39.95;97005.41;5012825;28;20130;-70
2023/09/07 08:25:13;;;;;;;9.77;4.90;;;;;;;32.47;38.08;97002.22;5012094;28;20188;-71
2023/09/07 08:27:46;;;;;;;7.70;5.25;;;;;;;31.78;38.60;97003.03;5018925;28;20491;-73
2023/09/07 08:30:15;;;;;;;8.48;5.15;;;;;;;31.76;39.35;96994.25;5012481;28;20044;-70
2023/09/07 08:32:41;;;;;;;6.18;4.53;;;;;;;31.12;41.34;96997.00;5018200;28;20045;-72
2023/09/07 08:35:09;;;;;;;8.10;4.90;;;;;;;32.25;38.99;96989.50;5014058;28;20087;-72
2023/09/07 08:37:34;;;;;;;7.20;4.75;;;;;;;31.51;40.43;96987.38;5007533;28;20539;-71
2023/09/07 08:40:00;;;;;;;10.55;4.78;;;;;;;31.62;40.69;96991.09;5014795;28;20187;-71
2023/09/07 08:42:25;;;;;;;7.55;5.03;;;;;;;31.40;40.08;96988.00;5010831;28;20072;-71
2023/09/07 08:44:54;;;;;;;8.80;5.07;;;;;;;32.06;39.12;96983.44;5001307;28;20038;-71
2023/09/07 08:47:20;;;;;;;;;;;;;;;29.29;45.08;96977.19;5015424;28;20026;-69
2023/09/07 08:49:47;;;;;;;7.32;4.53;;;;;;;31.33;41.40;96989.25;5032012;28;19978;-72
2023/09/07 08:52:14;;;;;;;9.40;5.57;;;;;;;32.21;39.10;96991.75;5001294;28;20056;-71
2023/09/07 08:54:42;;;;;;;9.55;5.38;;;;;;;31.56;40.15;96990.25;5016035;28;20049;-70
2023/09/07 08:57:10;;;;;;;9.55;5.88;;;;;;;29.69;42.51;96981.47;5013593;28;20049;-71
2023/09/07 08:59:36;;;;;;;8.07;5.28;;;;;;;30.02;43.88;96980.44;5008392;28;20049;-69
2023/09/07 09:02:04;;;;;;;8.40;5.85;;;;;;;29.35;44.91;96980.91;5018648;28;20415;-71
2023/09/07 09:04:30;;;;;;;7.23;5.90;;;;;;;26.57;51.80;96979.81;5000867;28;20056;-71
2023/09/07 09:06:56;;;;;;;8.00;5.25;;;;;;;27.35;52.03;96971.97;5012249;28;20054;-71
2023/09/07 09:09:25;;;;;;;7.45;5.47;;;;;;;30.30;44.32;96992.13;5005569;28;20061;-72
2023/09/07 09:11:51;;;;;;;11.65;5.43;;;;;;;30.65;41.55;96984.91;5003521;28;20099;-72
2023/09/07 09:14:18;;;;;;;6.90;4.72;;;;;;;31.76;40.36;96983.69;5016819;28;20053;-74
2023/09/07 09:16:52;;;;;;;6.50;5.65;;;;;;;28.39;48.48;96967.72;5021526;28;20095;-70
2023/09/07 09:19:18;;;;;;;6.57;4.93;;;;;;;30.11;44.87;96974.66;5011143;28;20137;-71
2023/09/07 09:21:47;;;;;;;9.35;4.82;;;;;;;31.67;41.66;96978.22;5012664;28;20679;-71
2023/09/07 09:24:12;;;;;;;8.75;6.00;;;;;;;32.05;39.98;96973.38;5013360;28;20057;-73
2023/09/07 09:26:38;;;;;;;7.07;4.93;;;;;;;31.91;41.40;96972.25;5020670;28;20049;-74
2023/09/07 09:29:03;;;;;;;6.97;5.63;;;;;;;28.77;48.40;96965.44;5018713;28;20488;-77
2023/09/07 09:31:30;;;;;;;11.30;5.60;;;;;;;29.11;48.26;96966.84;5005940;28;20045;-73
2023/09/07 09:33:56;;;;;;;9.75;5.53;;;;;;;28.48;50.47;96952.81;5022516;28;20048;-72
2023/09/07 09:36:22;;;;;;;10.50;5.88;;;;;;;29.09;48.20;96960.16;5016018;28;20041;-71
2023/09/07 09:38:53;;;;;;;12.85;6.72;;;;;;;29.18;47.79;96960.06;5021228;28;20052;-72
2023/09/07 09:41:20;;;;;;;8.00;4.97;;;;;;;29.85;47.34;96957.59;5008278;28;20042;-72
2023/09/07 09:43:51;;;;;;;7.88;4.90;;;;;;;30.69;45.54;96951.53;5017315;28;20044;-70
2023/09/07 09:46:18;;;;;;;5.13;4.40;;;;;;;30.93;44.37;96953.34;4999087;28;20110;-72
2023/09/07 09:48:44;;;;;;;8.40;4.78;;;;;;;30.75;44.95;96958.00;5015860;28;20071;-72
2023/09/07 09:51:11;;;;;;;7.80;4.80;;;;;;;30.69;45.22;96962.84;5022546;28;20416;-72
2023/09/07 09:53:36;;;;;;;9.13;5.15;;;;;;;32.23;41.25;96960.09;5024484;28;20042;-72
2023/09/07 09:56:02;;;;;;;7.85;4.85;;;;;;;32.28;41.33;96959.34;5020978;28;20136;-71
2023/09/07 09:58:29;;;;;;;8.20;5.53;;;;;;;29.88;46.13;96953.78;4980531;28;20057;-71
2023/09/07 10:00:57;;;;;;;8.60;5.63;;;;;;;29.70;47.15;96954.00;5023080;28;20496;-72
2023/09/07 10:03:23;;;;;;;9.53;5.90;;;;;;;30.26;47.69;96952.00;5013030;28;20167;-71
2023/09/07 10:05:49;;;;;;;9.88;5.55;;;;;;;29.89;47.89;96952.53;5016207;28;20528;-70
2023/09/07 10:08:17;;;;;;;9.25;4.80;;;;;;;30.29;47.26;96953.84;5013106;28;20159;-72
2023/09/07 10:10:46;;;;;;;11.75;5.47;;;;;;;30.19;47.26;96955.25;5022714;28;20045;-73
2023/09/07 10:13:14;;;;;;;8.35;5.28;;;;;;;30.64;47.53;96944.53;5017789;28;20045;-73
2023/09/07 10:15:40;;;;;;;8.47;4.83;;;;;;;29.83;49.59;96946.00;5004656;28;20125;-72
2023/09/07 10:18:16;;;;;;;6.65;4.60;;;;;;;30.31;48.12;96942.81;5013996;28;20395;-71
2023/09/07 10:20:55;;;;;;;7.50;5.15;;;;;;;31.23;45.43;96946.19;5016960;28;20063;-69
2023/09/07 10:23:23;;;;;;;9.13;4.40;;;;;;;30.45;46.95;96935.59;5018159;28;20076;-71
2023/09/07 10:25:50;;;;;;;8.88;4.97;;;;;;;31.07;45.35;96929.84;5019586;28;20392;-69
2023/09/07 10:28:24;;;;;;;6.45;4.68;;;;;;;31.30;45.43;96930.06;5016165;28;20041;-72
2023/09/07 10:31:02;;;;;;;6.90;4.20;;;;;;;31.40;45.61;96926.56;5017287;28;20563;-71
2023/09/07 10:33:27;;;;;;;7.75;4.60;;;;;;;31.79;45.16;96936.63;5009024;28;20042;-70
2023/09/07 10:35:52;;;;;;;8.30;5.28;;;;;;;31.57;44.65;96932.38;5013828;28;20041;-70
2023/09/07 10:38:18;;;;;;;7.00;4.47;;;;;;;31.21;46.31;96925.34;5008287;28;20041;-70
2023/09/07 10:40:45;;;;;;;10.23;4.90;;;;;;;31.07;46.92;96921.38;5017941;28;20554;-71
2023/09/07 10:43:11;;;;;;;9.20;4.50;;;;;;;31.12;46.79;96917.03;5000320;28;20045;-70
2023/09/07 10:45:36;;;;;;;8.57;4.97;;;;;;;29.38;50.59;96919.88;5008880;28;20038;-70
2023/09/07 10:48:03;;;;;;;9.02;5.00;;;;;;;29.96;49.68;96914.63;5012479;28;20077;-71
2023/09/07 10:50:29;;;;;;;9.65;5.30;;;;;;;30.04;49.50;96912.94;4982399;28;20523;-70
2023/09/07 10:52:55;;;;;;;8.88;4.95;;;;;;;29.74;50.41;96915.06;5005304;28;20046;-71
2023/09/07 10:55:20;;;;;;;8.32;5.10;;;;;;;30.10;49.95;96915.84;5002966;28;20053;-70
2023/09/07 10:57:47;;;;;;;8.50;5.45;;;;;;;29.81;49.25;96914.69;5011339;28;20052;-71
2023/09/07 11:00:14;;;;;;;9.18;4.63;;;;;;;29.81;50.95;96908.25;5010192;28;20453;-70
2023/09/07 11:02:40;;;;;;;11.13;4.43;;;;;;;30.52;49.81;96906.09;5014412;28;20038;-70
2023/09/07 11:05:06;;;;;;;7.07;4.90;;;;;;;29.95;49.79;96895.38;5008569;28;20538;-71
2023/09/07 11:07:33;;;;;;;10.60;4.82;;;;;;;29.52;51.54;96898.56;5010616;28;20049;-69
2023/09/07 11:09:58;;;;;;;7.45;5.13;;;;;;;29.05;53.89;96895.47;5013435;28;20040;-71
2023/09/07 11:12:24;;;;;;;8.63;5.35;;;;;;;28.94;55.15;96886.84;5030939;28;20573;-73
2023/09/07 11:14:53;;;;;;;9.60;5.53;;;;;;;28.78;54.68;96894.50;5019926;28;20042;-71
2023/09/07 11:17:19;;;;;;;;;;;;;;;28.47;55.19;96880.03;5003542;28;20071;-70
2023/09/07 11:19:44;;;;;;;11.23;5.35;;;;;;;28.82;55.77;96887.91;4997060;28;20388;-69
2023/09/07 11:22:10;;;;;;;8.50;5.00;;;;;;;28.76;55.93;96880.13;5001331;28;20053;-71
2023/09/07 11:24:36;;;;;;;8.85;5.00;;;;;;;29.09;54.71;96878.38;5017940;28;20045;-70